sensor_id;sensor_type;location;lat;lon;timestamp;P1;durP1;ratioP1;P2;durP2;ratioP2
75246;SDS011;63844;50.042;19.224;2022-12-11T00:01:52;19.00;;;6.80;;
75246;SDS011;63844;50.042;19.224;2022-12-11T00:04:18;18.00;;;7.20;;
75246;SDS011;63844;50.042;19.224;2022-12-11T00:06:45;17.20;;;6.90;;
75246;SDS011;63844;50.042;19.224;2022-12-11T00:09:16;21.00;;;6.70;;
75246;SDS011;63844;50.042;19.224;2022-12-11T00:11:43;17.40;;;6.30;;
75246;SDS011;63844;50.042;19.224;2022-12-11T00:16:37;13.10;;;4.60;;
75246;SDS011;63844;50.042;19.224;2022-12-11T00:19:04;13.20;;;5.20;;
75246;SDS011;63844;50.042;19.224;2022-12-11T00:21:31;17.80;;;6.80;;
75246;SDS011;63844;50.042;19.224;2022-12-11T00:23:57;18.20;;;6.70;;
75246;SDS011;63844;50.042;19.224;2022-12-11T00:26:24;15.70;;;6.50;;
75246;SDS011;63844;50.042;19.224;2022-12-11T00:28:54;13.90;;;5.00;;
75246;SDS011;63844;50.042;19.224;2022-12-11T00:31:22;19.90;;;6.80;;
75246;SDS011;63844;50.042;19.224;2022-12-11T00:33:49;14.90;;;6.10;;
75246;SDS011;63844;50.042;19.224;2022-12-11T00:36:18;14.90;;;6.60;;
75246;SDS011;63844;50.042;19.224;2022-12-11T00:38:46;17.10;;;6.90;;
75246;SDS011;63844;50.042;19.224;2022-12-11T00:41:14;18.40;;;6.30;;
75246;SDS011;63844;50.042;19.224;2022-12-11T00:43:43;13.50;;;4.80;;
75246;SDS011;63844;50.042;19.224;2022-12-11T00:46:10;14.20;;;5.10;;
75246;SDS011;63844;50.042;19.224;2022-12-11T00:48:37;13.80;;;4.80;;
75246;SDS011;63844;50.042;19.224;2022-12-11T00:51:03;16.30;;;5.80;;
75246;SDS011;63844;50.042;19.224;2022-12-11T00:53:30;13.50;;;5.70;;
75246;SDS011;63844;50.042;19.224;2022-12-11T00:55:56;12.90;;;5.00;;
75246;SDS011;63844;50.042;19.224;2022-12-11T00:58:23;11.70;;;4.50;;
75246;SDS011;63844;50.042;19.224;2022-12-11T01:00:49;11.40;;;5.20;;
75246;SDS011;63844;50.042;19.224;2022-12-11T01:03:16;12.90;;;4.60;;
75246;SDS011;63844;50.042;19.224;2022-12-11T01:05:52;12.60;;;4.80;;
75246;SDS011;63844;50.042;19.224;2022-12-11T01:08:19;12.20;;;4.30;;
75246;SDS011;63844;50.042;19.224;2022-12-11T01:10:46;9.50;;;3.10;;
75246;SDS011;63844;50.042;19.224;2022-12-11T01:13:12;11.30;;;4.10;;
75246;SDS011;63844;50.042;19.224;2022-12-11T01:15:40;13.20;;;4.60;;
75246;SDS011;63844;50.042;19.224;2022-12-11T01:18:10;12.80;;;4.90;;
75246;SDS011;63844;50.042;19.224;2022-12-11T01:20:38;15.70;;;4.80;;
75246;SDS011;63844;50.042;19.224;2022-12-11T01:23:09;11.70;;;4.40;;
75246;SDS011;63844;50.042;19.224;2022-12-11T01:25:38;12.00;;;4.20;;
75246;SDS011;63844;50.042;19.224;2022-12-11T01:28:05;12.40;;;4.90;;
75246;SDS011;63844;50.042;19.224;2022-12-11T01:30:32;14.20;;;4.70;;
75246;SDS011;63844;50.042;19.224;2022-12-11T01:32:59;12.00;;;4.30;;
75246;SDS011;63844;50.042;19.224;2022-12-11T01:35:26;10.60;;;4.30;;
75246;SDS011;63844;50.042;19.224;2022-12-11T01:37:53;11.40;;;3.90;;
75246;SDS011;63844;50.042;19.224;2022-12-11T01:40:20;6.50;;;3.00;;
75246;SDS011;63844;50.042;19.224;2022-12-11T01:42:47;11.80;;;4.40;;
75246;SDS011;63844;50.042;19.224;2022-12-11T01:48:18;16.50;;;5.40;;
75246;SDS011;63844;50.042;19.224;2022-12-11T01:50:48;11.70;;;4.40;;
75246;SDS011;63844;50.042;19.224;2022-12-11T01:53:25;12.20;;;4.90;;
75246;SDS011;63844;50.042;19.224;2022-12-11T01:58:25;15.30;;;4.80;;
75246;SDS011;63844;50.042;19.224;2022-12-11T02:00:56;14.50;;;6.00;;
75246;SDS011;63844;50.042;19.224;2022-12-11T02:03:23;11.30;;;5.40;;
75246;SDS011;63844;50.042;19.224;2022-12-11T02:05:50;14.20;;;5.40;;
75246;SDS011;63844;50.042;19.224;2022-12-11T02:08:17;15.60;;;5.30;;
75246;SDS011;63844;50.042;19.224;2022-12-11T02:13:34;10.50;;;4.10;;
75246;SDS011;63844;50.042;19.224;2022-12-11T02:16:05;13.60;;;5.40;;
75246;SDS011;63844;50.042;19.224;2022-12-11T02:18:37;13.30;;;5.20;;
75246;SDS011;63844;50.042;19.224;2022-12-11T02:21:12;14.30;;;5.70;;
75246;SDS011;63844;50.042;19.224;2022-12-11T02:26:24;13.20;;;4.90;;
75246;SDS011;63844;50.042;19.224;2022-12-11T02:29:11;12.20;;;4.40;;
75246;SDS011;63844;50.042;19.224;2022-12-11T02:31:48;10.60;;;3.90;;
75246;SDS011;63844;50.042;19.224;2022-12-11T02:34:32;11.10;;;3.40;;
75246;SDS011;63844;50.042;19.224;2022-12-11T02:37:10;12.30;;;4.50;;
75246;SDS011;63844;50.042;19.224;2022-12-11T02:39:41;13.20;;;4.50;;
75246;SDS011;63844;50.042;19.224;2022-12-11T02:42:10;4.60;;;1.90;;
75246;SDS011;63844;50.042;19.224;2022-12-11T02:44:39;11.60;;;4.60;;
75246;SDS011;63844;50.042;19.224;2022-12-11T02:47:07;14.40;;;5.00;;
75246;SDS011;63844;50.042;19.224;2022-12-11T02:49:37;15.10;;;5.60;;
75246;SDS011;63844;50.042;19.224;2022-12-11T02:52:08;14.50;;;5.70;;
75246;SDS011;63844;50.042;19.224;2022-12-11T02:54:38;16.30;;;6.60;;
75246;SDS011;63844;50.042;19.224;2022-12-11T02:59:48;12.80;;;4.90;;
75246;SDS011;63844;50.042;19.224;2022-12-11T03:02:15;12.90;;;5.60;;
75246;SDS011;63844;50.042;19.224;2022-12-11T03:04:42;11.40;;;5.00;;
75246;SDS011;63844;50.042;19.224;2022-12-11T03:07:18;18.10;;;5.20;;
75246;SDS011;63844;50.042;19.224;2022-12-11T03:09:49;15.00;;;6.10;;
75246;SDS011;63844;50.042;19.224;2022-12-11T03:12:17;16.80;;;5.90;;
75246;SDS011;63844;50.042;19.224;2022-12-11T03:14:54;14.30;;;4.60;;
75246;SDS011;63844;50.042;19.224;2022-12-11T03:17:26;16.40;;;6.60;;
75246;SDS011;63844;50.042;19.224;2022-12-11T03:25:28;8.20;;;3.80;;
75246;SDS011;63844;50.042;19.224;2022-12-11T03:28:07;6.10;;;2.50;;
75246;SDS011;63844;50.042;19.224;2022-12-11T03:30:46;12.50;;;4.60;;
75246;SDS011;63844;50.042;19.224;2022-12-11T03:33:21;14.50;;;4.60;;
75246;SDS011;63844;50.042;19.224;2022-12-11T03:35:54;10.30;;;3.80;;
75246;SDS011;63844;50.042;19.224;2022-12-11T03:38:27;12.50;;;4.80;;
75246;SDS011;63844;50.042;19.224;2022-12-11T03:40:59;13.40;;;4.80;;
75246;SDS011;63844;50.042;19.224;2022-12-11T03:43:28;11.80;;;4.30;;
75246;SDS011;63844;50.042;19.224;2022-12-11T03:45:57;11.80;;;4.60;;
75246;SDS011;63844;50.042;19.224;2022-12-11T03:48:26;9.30;;;4.50;;
75246;SDS011;63844;50.042;19.224;2022-12-11T03:50:58;15.50;;;4.80;;
75246;SDS011;63844;50.042;19.224;2022-12-11T03:53:27;11.60;;;3.80;;
75246;SDS011;63844;50.042;19.224;2022-12-11T03:55:53;9.60;;;3.60;;
75246;SDS011;63844;50.042;19.224;2022-12-11T03:58:23;15.10;;;5.60;;
75246;SDS011;63844;50.042;19.224;2022-12-11T04:00:49;13.50;;;5.10;;
75246;SDS011;63844;50.042;19.224;2022-12-11T04:03:16;11.20;;;4.80;;
75246;SDS011;63844;50.042;19.224;2022-12-11T04:05:46;13.70;;;5.20;;
75246;SDS011;63844;50.042;19.224;2022-12-11T04:08:15;9.90;;;3.90;;
75246;SDS011;63844;50.042;19.224;2022-12-11T04:10:43;14.20;;;5.10;;
75246;SDS011;63844;50.042;19.224;2022-12-11T04:13:09;10.00;;;3.90;;
75246;SDS011;63844;50.042;19.224;2022-12-11T04:15:36;12.20;;;4.80;;
75246;SDS011;63844;50.042;19.224;2022-12-11T04:18:04;12.00;;;4.10;;
75246;SDS011;63844;50.042;19.224;2022-12-11T04:20:54;12.00;;;4.30;;
75246;SDS011;63844;50.042;19.224;2022-12-11T04:23:40;13.20;;;4.30;;
75246;SDS011;63844;50.042;19.224;2022-12-11T04:26:25;13.60;;;4.60;;
75246;SDS011;63844;50.042;19.224;2022-12-11T04:28:52;10.80;;;4.10;;
75246;SDS011;63844;50.042;19.224;2022-12-11T04:31:19;11.30;;;4.70;;
75246;SDS011;63844;50.042;19.224;2022-12-11T04:33:47;5.50;;;2.60;;
75246;SDS011;63844;50.042;19.224;2022-12-11T04:36:13;12.50;;;4.40;;
75246;SDS011;63844;50.042;19.224;2022-12-11T04:38:40;9.90;;;3.10;;
75246;SDS011;63844;50.042;19.224;2022-12-11T04:41:07;10.80;;;3.10;;
75246;SDS011;63844;50.042;19.224;2022-12-11T04:43:39;5.90;;;1.70;;
75246;SDS011;63844;50.042;19.224;2022-12-11T04:46:07;10.60;;;4.00;;
75246;SDS011;63844;50.042;19.224;2022-12-11T04:48:36;10.40;;;3.40;;
75246;SDS011;63844;50.042;19.224;2022-12-11T04:51:03;15.20;;;4.20;;
75246;SDS011;63844;50.042;19.224;2022-12-11T04:53:31;12.50;;;4.70;;
75246;SDS011;63844;50.042;19.224;2022-12-11T04:55:57;12.00;;;4.90;;
75246;SDS011;63844;50.042;19.224;2022-12-11T04:58:24;14.20;;;4.50;;
75246;SDS011;63844;50.042;19.224;2022-12-11T05:00:51;12.10;;;4.30;;
75246;SDS011;63844;50.042;19.224;2022-12-11T05:03:18;13.50;;;4.80;;
75246;SDS011;63844;50.042;19.224;2022-12-11T05:05:49;12.30;;;4.40;;
75246;SDS011;63844;50.042;19.224;2022-12-11T05:08:17;15.60;;;5.60;;
75246;SDS011;63844;50.042;19.224;2022-12-11T05:13:11;11.70;;;4.10;;
75246;SDS011;63844;50.042;19.224;2022-12-11T05:15:38;15.60;;;5.20;;
75246;SDS011;63844;50.042;19.224;2022-12-11T05:18:05;10.80;;;4.00;;
75246;SDS011;63844;50.042;19.224;2022-12-11T05:20:32;12.50;;;4.60;;
75246;SDS011;63844;50.042;19.224;2022-12-11T05:22:58;16.20;;;4.70;;
75246;SDS011;63844;50.042;19.224;2022-12-11T05:25:24;12.80;;;4.80;;
75246;SDS011;63844;50.042;19.224;2022-12-11T05:27:51;12.70;;;3.90;;
75246;SDS011;63844;50.042;19.224;2022-12-11T05:30:17;13.90;;;4.50;;
75246;SDS011;63844;50.042;19.224;2022-12-11T05:32:43;13.10;;;5.10;;
75246;SDS011;63844;50.042;19.224;2022-12-11T05:35:10;12.20;;;4.40;;
75246;SDS011;63844;50.042;19.224;2022-12-11T05:37:36;18.70;;;5.90;;
75246;SDS011;63844;50.042;19.224;2022-12-11T05:40:03;7.60;;;2.70;;
75246;SDS011;63844;50.042;19.224;2022-12-11T05:42:32;17.40;;;5.50;;
75246;SDS011;63844;50.042;19.224;2022-12-11T05:44:59;15.90;;;5.90;;
75246;SDS011;63844;50.042;19.224;2022-12-11T05:47:25;10.30;;;4.30;;
75246;SDS011;63844;50.042;19.224;2022-12-11T05:49:51;11.90;;;4.00;;
75246;SDS011;63844;50.042;19.224;2022-12-11T05:52:18;12.60;;;4.90;;
75246;SDS011;63844;50.042;19.224;2022-12-11T05:54:46;6.80;;;2.70;;
75246;SDS011;63844;50.042;19.224;2022-12-11T05:57:14;15.60;;;6.00;;
75246;SDS011;63844;50.042;19.224;2022-12-11T05:59:41;14.10;;;4.90;;
75246;SDS011;63844;50.042;19.224;2022-12-11T06:02:08;16.40;;;6.30;;
75246;SDS011;63844;50.042;19.224;2022-12-11T06:04:34;14.90;;;5.30;;
75246;SDS011;63844;50.042;19.224;2022-12-11T06:07:00;16.20;;;5.00;;
75246;SDS011;63844;50.042;19.224;2022-12-11T06:09:27;13.30;;;4.80;;
75246;SDS011;63844;50.042;19.224;2022-12-11T06:11:53;11.70;;;5.20;;
75246;SDS011;63844;50.042;19.224;2022-12-11T06:14:19;18.00;;;6.90;;
75246;SDS011;63844;50.042;19.224;2022-12-11T06:16:46;18.40;;;6.70;;
75246;SDS011;63844;50.042;19.224;2022-12-11T06:19:13;12.80;;;4.50;;
75246;SDS011;63844;50.042;19.224;2022-12-11T06:21:42;17.40;;;6.30;;
75246;SDS011;63844;50.042;19.224;2022-12-11T06:24:10;14.80;;;4.90;;
75246;SDS011;63844;50.042;19.224;2022-12-11T06:26:37;11.80;;;4.60;;
75246;SDS011;63844;50.042;19.224;2022-12-11T06:29:03;15.00;;;5.10;;
75246;SDS011;63844;50.042;19.224;2022-12-11T06:31:29;15.00;;;5.20;;
75246;SDS011;63844;50.042;19.224;2022-12-11T06:33:56;17.20;;;5.70;;
75246;SDS011;63844;50.042;19.224;2022-12-11T06:36:22;15.70;;;4.60;;
75246;SDS011;63844;50.042;19.224;2022-12-11T06:38:50;13.80;;;4.90;;
75246;SDS011;63844;50.042;19.224;2022-12-11T06:41:17;18.40;;;5.20;;
75246;SDS011;63844;50.042;19.224;2022-12-11T06:43:44;17.70;;;5.90;;
75246;SDS011;63844;50.042;19.224;2022-12-11T06:46:12;17.10;;;5.90;;
75246;SDS011;63844;50.042;19.224;2022-12-11T06:48:41;12.90;;;4.90;;
75246;SDS011;63844;50.042;19.224;2022-12-11T06:51:09;17.00;;;6.50;;
75246;SDS011;63844;50.042;19.224;2022-12-11T06:53:37;15.30;;;5.40;;
75246;SDS011;63844;50.042;19.224;2022-12-11T06:56:05;12.20;;;4.20;;
75246;SDS011;63844;50.042;19.224;2022-12-11T06:58:33;13.60;;;4.80;;
75246;SDS011;63844;50.042;19.224;2022-12-11T07:01:01;16.00;;;6.40;;
75246;SDS011;63844;50.042;19.224;2022-12-11T07:03:29;15.60;;;5.70;;
75246;SDS011;63844;50.042;19.224;2022-12-11T07:05:59;14.60;;;5.20;;
75246;SDS011;63844;50.042;19.224;2022-12-11T07:08:27;15.10;;;5.90;;
75246;SDS011;63844;50.042;19.224;2022-12-11T07:10:54;13.40;;;4.80;;
75246;SDS011;63844;50.042;19.224;2022-12-11T07:13:28;17.50;;;6.10;;
75246;SDS011;63844;50.042;19.224;2022-12-11T07:15:54;13.40;;;5.60;;
75246;SDS011;63844;50.042;19.224;2022-12-11T07:18:24;20.20;;;6.50;;
75246;SDS011;63844;50.042;19.224;2022-12-11T07:20:51;18.60;;;6.20;;
75246;SDS011;63844;50.042;19.224;2022-12-11T07:23:18;15.50;;;5.80;;
75246;SDS011;63844;50.042;19.224;2022-12-11T07:25:44;15.10;;;5.80;;
75246;SDS011;63844;50.042;19.224;2022-12-11T07:28:11;11.30;;;4.70;;
75246;SDS011;63844;50.042;19.224;2022-12-11T07:30:37;15.60;;;6.40;;
75246;SDS011;63844;50.042;19.224;2022-12-11T07:33:04;14.10;;;5.40;;
75246;SDS011;63844;50.042;19.224;2022-12-11T07:35:33;13.70;;;6.10;;
75246;SDS011;63844;50.042;19.224;2022-12-11T07:38:00;16.10;;;6.60;;
75246;SDS011;63844;50.042;19.224;2022-12-11T07:40:27;18.90;;;7.00;;
75246;SDS011;63844;50.042;19.224;2022-12-11T07:42:53;12.30;;;5.20;;
75246;SDS011;63844;50.042;19.224;2022-12-11T07:45:20;12.80;;;4.70;;
75246;SDS011;63844;50.042;19.224;2022-12-11T07:47:46;17.70;;;6.00;;
75246;SDS011;63844;50.042;19.224;2022-12-11T07:50:12;11.70;;;2.80;;
75246;SDS011;63844;50.042;19.224;2022-12-11T07:52:39;15.60;;;6.40;;
75246;SDS011;63844;50.042;19.224;2022-12-11T07:55:05;11.70;;;5.00;;
75246;SDS011;63844;50.042;19.224;2022-12-11T07:57:32;12.90;;;4.30;;
75246;SDS011;63844;50.042;19.224;2022-12-11T07:59:58;12.10;;;4.10;;
75246;SDS011;63844;50.042;19.224;2022-12-11T08:02:24;10.10;;;4.10;;
75246;SDS011;63844;50.042;19.224;2022-12-11T08:04:51;15.20;;;6.00;;
75246;SDS011;63844;50.042;19.224;2022-12-11T08:07:17;18.10;;;5.80;;
75246;SDS011;63844;50.042;19.224;2022-12-11T08:09:44;18.10;;;6.50;;
75246;SDS011;63844;50.042;19.224;2022-12-11T08:12:11;14.20;;;5.70;;
75246;SDS011;63844;50.042;19.224;2022-12-11T08:14:38;16.80;;;6.90;;
75246;SDS011;63844;50.042;19.224;2022-12-11T08:17:04;13.60;;;5.00;;
75246;SDS011;63844;50.042;19.224;2022-12-11T08:19:30;12.50;;;4.80;;
75246;SDS011;63844;50.042;19.224;2022-12-11T08:21:57;12.50;;;5.00;;
75246;SDS011;63844;50.042;19.224;2022-12-11T08:24:23;12.20;;;4.20;;
75246;SDS011;63844;50.042;19.224;2022-12-11T08:26:49;10.80;;;4.80;;
75246;SDS011;63844;50.042;19.224;2022-12-11T08:29:16;8.50;;;3.40;;
75246;SDS011;63844;50.042;19.224;2022-12-11T08:31:43;10.60;;;4.70;;
75246;SDS011;63844;50.042;19.224;2022-12-11T08:34:09;14.00;;;5.10;;
75246;SDS011;63844;50.042;19.224;2022-12-11T08:36:39;15.30;;;6.20;;
75246;SDS011;63844;50.042;19.224;2022-12-11T08:39:06;16.30;;;6.20;;
75246;SDS011;63844;50.042;19.224;2022-12-11T08:41:33;11.80;;;4.70;;
75246;SDS011;63844;50.042;19.224;2022-12-11T08:43:59;15.90;;;5.70;;
75246;SDS011;63844;50.042;19.224;2022-12-11T08:48:55;12.60;;;5.70;;
75246;SDS011;63844;50.042;19.224;2022-12-11T08:51:22;15.10;;;6.10;;
75246;SDS011;63844;50.042;19.224;2022-12-11T08:53:53;16.70;;;5.90;;
75246;SDS011;63844;50.042;19.224;2022-12-11T08:56:21;15.30;;;5.50;;
75246;SDS011;63844;50.042;19.224;2022-12-11T08:58:49;15.70;;;6.10;;
75246;SDS011;63844;50.042;19.224;2022-12-11T09:01:23;11.10;;;4.80;;
75246;SDS011;63844;50.042;19.224;2022-12-11T09:03:51;7.20;;;3.00;;
75246;SDS011;63844;50.042;19.224;2022-12-11T09:06:20;8.80;;;3.70;;
75246;SDS011;63844;50.042;19.224;2022-12-11T09:08:49;13.40;;;5.20;;
75246;SDS011;63844;50.042;19.224;2022-12-11T09:11:18;12.30;;;4.60;;
75246;SDS011;63844;50.042;19.224;2022-12-11T09:13:49;15.10;;;4.40;;
75246;SDS011;63844;50.042;19.224;2022-12-11T09:16:16;12.90;;;5.00;;
75246;SDS011;63844;50.042;19.224;2022-12-11T09:18:44;12.20;;;4.80;;
75246;SDS011;63844;50.042;19.224;2022-12-11T09:21:13;8.20;;;3.70;;
75246;SDS011;63844;50.042;19.224;2022-12-11T09:23:42;15.40;;;5.70;;
75246;SDS011;63844;50.042;19.224;2022-12-11T09:26:10;15.00;;;6.60;;
75246;SDS011;63844;50.042;19.224;2022-12-11T09:28:39;18.30;;;5.80;;
75246;SDS011;63844;50.042;19.224;2022-12-11T09:33:37;12.80;;;4.30;;
75246;SDS011;63844;50.042;19.224;2022-12-11T09:36:03;18.10;;;6.90;;
75246;SDS011;63844;50.042;19.224;2022-12-11T09:38:31;15.80;;;5.80;;
75246;SDS011;63844;50.042;19.224;2022-12-11T09:40:59;18.20;;;5.80;;
75246;SDS011;63844;50.042;19.224;2022-12-11T09:46:09;8.20;;;3.70;;
75246;SDS011;63844;50.042;19.224;2022-12-11T09:48:40;20.50;;;6.90;;
75246;SDS011;63844;50.042;19.224;2022-12-11T09:51:45;15.30;;;5.70;;
75246;SDS011;63844;50.042;19.224;2022-12-11T09:54:10;13.40;;;5.20;;
75246;SDS011;63844;50.042;19.224;2022-12-11T09:56:44;19.10;;;6.20;;
75246;SDS011;63844;50.042;19.224;2022-12-11T09:59:29;22.40;;;7.70;;
75246;SDS011;63844;50.042;19.224;2022-12-11T10:02:08;13.70;;;5.50;;
75246;SDS011;63844;50.042;19.224;2022-12-11T10:04:51;19.10;;;7.40;;
75246;SDS011;63844;50.042;19.224;2022-12-11T10:19:02;16.00;;;6.10;;
75246;SDS011;63844;50.042;19.224;2022-12-11T10:21:32;13.10;;;4.70;;
75246;SDS011;63844;50.042;19.224;2022-12-11T10:24:08;16.10;;;6.50;;
75246;SDS011;63844;50.042;19.224;2022-12-11T10:26:42;15.30;;;6.20;;
75246;SDS011;63844;50.042;19.224;2022-12-11T10:29:12;18.50;;;7.90;;
75246;SDS011;63844;50.042;19.224;2022-12-11T10:31:46;16.10;;;6.70;;
75246;SDS011;63844;50.042;19.224;2022-12-11T10:34:23;16.80;;;5.50;;
75246;SDS011;63844;50.042;19.224;2022-12-11T10:37:02;18.90;;;7.00;;
75246;SDS011;63844;50.042;19.224;2022-12-11T10:39:29;17.70;;;7.40;;
75246;SDS011;63844;50.042;19.224;2022-12-11T10:41:55;18.20;;;7.00;;
75246;SDS011;63844;50.042;19.224;2022-12-11T10:44:23;18.60;;;6.60;;
75246;SDS011;63844;50.042;19.224;2022-12-11T10:47:02;16.60;;;6.70;;
75246;SDS011;63844;50.042;19.224;2022-12-11T10:49:36;13.40;;;5.70;;
75246;SDS011;63844;50.042;19.224;2022-12-11T10:52:11;6.70;;;2.90;;
75246;SDS011;63844;50.042;19.224;2022-12-11T10:54:45;14.30;;;5.20;;
75246;SDS011;63844;50.042;19.224;2022-12-11T10:57:14;13.60;;;5.90;;
75246;SDS011;63844;50.042;19.224;2022-12-11T10:59:50;11.90;;;4.60;;
75246;SDS011;63844;50.042;19.224;2022-12-11T11:02:22;8.80;;;3.00;;
75246;SDS011;63844;50.042;19.224;2022-12-11T11:04:52;13.70;;;5.10;;
75246;SDS011;63844;50.042;19.224;2022-12-11T11:07:21;15.20;;;5.90;;
75246;SDS011;63844;50.042;19.224;2022-12-11T11:09:49;11.80;;;4.90;;
75246;SDS011;63844;50.042;19.224;2022-12-11T11:12:27;16.30;;;5.70;;
75246;SDS011;63844;50.042;19.224;2022-12-11T11:14:58;15.00;;;5.90;;
75246;SDS011;63844;50.042;19.224;2022-12-11T11:17:30;14.40;;;5.70;;
75246;SDS011;63844;50.042;19.224;2022-12-11T11:19:59;13.80;;;4.60;;
75246;SDS011;63844;50.042;19.224;2022-12-11T11:22:37;14.90;;;6.00;;
75246;SDS011;63844;50.042;19.224;2022-12-11T11:25:15;17.70;;;7.50;;
75246;SDS011;63844;50.042;19.224;2022-12-11T11:27:47;18.00;;;6.00;;
75246;SDS011;63844;50.042;19.224;2022-12-11T11:30:22;20.50;;;7.30;;
75246;SDS011;63844;50.042;19.224;2022-12-11T11:32:51;16.70;;;7.00;;
75246;SDS011;63844;50.042;19.224;2022-12-11T11:35:21;20.40;;;7.60;;
75246;SDS011;63844;50.042;19.224;2022-12-11T11:37:57;17.30;;;6.90;;
75246;SDS011;63844;50.042;19.224;2022-12-11T11:40:36;11.00;;;4.30;;
75246;SDS011;63844;50.042;19.224;2022-12-11T11:45:56;19.60;;;8.50;;
75246;SDS011;63844;50.042;19.224;2022-12-11T11:48:35;24.40;;;8.70;;
75246;SDS011;63844;50.042;19.224;2022-12-11T11:51:13;20.80;;;7.90;;
75246;SDS011;63844;50.042;19.224;2022-12-11T11:53:46;21.60;;;8.70;;
75246;SDS011;63844;50.042;19.224;2022-12-11T11:56:16;19.80;;;7.90;;
75246;SDS011;63844;50.042;19.224;2022-12-11T12:01:45;18.90;;;7.40;;
75246;SDS011;63844;50.042;19.224;2022-12-11T12:12:12;19.40;;;7.20;;
75246;SDS011;63844;50.042;19.224;2022-12-11T12:17:51;22.60;;;9.00;;
75246;SDS011;63844;50.042;19.224;2022-12-11T12:25:51;19.80;;;8.40;;
75246;SDS011;63844;50.042;19.224;2022-12-11T12:31:36;16.90;;;6.40;;
75246;SDS011;63844;50.042;19.224;2022-12-11T12:34:39;22.00;;;8.10;;
75246;SDS011;63844;50.042;19.224;2022-12-11T12:47:48;26.80;;;9.30;;
75246;SDS011;63844;50.042;19.224;2022-12-11T12:50:18;30.00;;;9.80;;
75246;SDS011;63844;50.042;19.224;2022-12-11T12:52:47;31.40;;;11.60;;
75246;SDS011;63844;50.042;19.224;2022-12-11T12:55:19;29.80;;;9.90;;
75246;SDS011;63844;50.042;19.224;2022-12-11T12:58:01;31.40;;;10.80;;
75246;SDS011;63844;50.042;19.224;2022-12-11T13:00:35;31.70;;;11.60;;
75246;SDS011;63844;50.042;19.224;2022-12-11T13:03:48;33.20;;;11.90;;
75246;SDS011;63844;50.042;19.224;2022-12-11T13:06:07;28.60;;;10.80;;
75246;SDS011;63844;50.042;19.224;2022-12-11T13:08:39;34.30;;;12.50;;
75246;SDS011;63844;50.042;19.224;2022-12-11T13:11:09;17.30;;;6.70;;
75246;SDS011;63844;50.042;19.224;2022-12-11T13:13:59;35.20;;;11.10;;
75246;SDS011;63844;50.042;19.224;2022-12-11T13:16:37;35.00;;;11.20;;
75246;SDS011;63844;50.042;19.224;2022-12-11T13:19:15;21.50;;;8.10;;
75246;SDS011;63844;50.042;19.224;2022-12-11T13:21:53;27.50;;;10.10;;
75246;SDS011;63844;50.042;19.224;2022-12-11T13:24:26;25.50;;;9.00;;
75246;SDS011;63844;50.042;19.224;2022-12-11T13:26:54;29.40;;;10.90;;
75246;SDS011;63844;50.042;19.224;2022-12-11T13:29:32;24.20;;;8.80;;
75246;SDS011;63844;50.042;19.224;2022-12-11T13:32:22;21.50;;;8.00;;
75246;SDS011;63844;50.042;19.224;2022-12-11T13:34:54;27.50;;;9.40;;
75246;SDS011;63844;50.042;19.224;2022-12-11T13:37:37;27.60;;;10.70;;
75246;SDS011;63844;50.042;19.224;2022-12-11T13:40:33;24.20;;;9.40;;
75246;SDS011;63844;50.042;19.224;2022-12-11T13:42:59;29.80;;;10.80;;
75246;SDS011;63844;50.042;19.224;2022-12-11T13:45:29;29.70;;;10.90;;
75246;SDS011;63844;50.042;19.224;2022-12-11T13:48:18;29.90;;;11.10;;
75246;SDS011;63844;50.042;19.224;2022-12-11T13:50:45;34.10;;;11.90;;
75246;SDS011;63844;50.042;19.224;2022-12-11T13:53:14;30.90;;;11.40;;
75246;SDS011;63844;50.042;19.224;2022-12-11T13:55:42;29.50;;;9.20;;
75246;SDS011;63844;50.042;19.224;2022-12-11T13:58:18;26.70;;;9.50;;
75246;SDS011;63844;50.042;19.224;2022-12-11T14:00:52;29.20;;;10.30;;
75246;SDS011;63844;50.042;19.224;2022-12-11T14:03:27;24.10;;;9.20;;
75246;SDS011;63844;50.042;19.224;2022-12-11T14:05:56;27.20;;;11.00;;
75246;SDS011;63844;50.042;19.224;2022-12-11T14:08:23;32.10;;;12.40;;
75246;SDS011;63844;50.042;19.224;2022-12-11T14:10:55;31.60;;;12.90;;
75246;SDS011;63844;50.042;19.224;2022-12-11T14:13:25;31.50;;;11.50;;
75246;SDS011;63844;50.042;19.224;2022-12-11T14:15:56;22.20;;;8.10;;
75246;SDS011;63844;50.042;19.224;2022-12-11T14:18:24;26.20;;;9.60;;
75246;SDS011;63844;50.042;19.224;2022-12-11T14:20:54;27.00;;;11.20;;
75246;SDS011;63844;50.042;19.224;2022-12-11T14:23:24;14.40;;;4.70;;
75246;SDS011;63844;50.042;19.224;2022-12-11T14:28:20;17.90;;;6.10;;
75246;SDS011;63844;50.042;19.224;2022-12-11T14:30:49;20.00;;;8.00;;
75246;SDS011;63844;50.042;19.224;2022-12-11T14:33:17;21.30;;;9.10;;
75246;SDS011;63844;50.042;19.224;2022-12-11T14:35:48;16.80;;;6.10;;
75246;SDS011;63844;50.042;19.224;2022-12-11T14:38:22;18.20;;;7.60;;
75246;SDS011;63844;50.042;19.224;2022-12-11T14:40:55;16.20;;;5.90;;
75246;SDS011;63844;50.042;19.224;2022-12-11T14:43:31;17.90;;;7.40;;
75246;SDS011;63844;50.042;19.224;2022-12-11T14:46:02;17.40;;;7.00;;
75246;SDS011;63844;50.042;19.224;2022-12-11T14:48:56;21.90;;;7.60;;
75246;SDS011;63844;50.042;19.224;2022-12-11T14:51:25;23.00;;;8.40;;
75246;SDS011;63844;50.042;19.224;2022-12-11T14:53:56;21.30;;;7.80;;
75246;SDS011;63844;50.042;19.224;2022-12-11T14:56:24;18.00;;;7.20;;
75246;SDS011;63844;50.042;19.224;2022-12-11T14:58:56;22.20;;;8.70;;
75246;SDS011;63844;50.042;19.224;2022-12-11T15:01:29;23.80;;;8.70;;
75246;SDS011;63844;50.042;19.224;2022-12-11T15:06:47;21.80;;;7.60;;
75246;SDS011;63844;50.042;19.224;2022-12-11T15:09:19;24.70;;;9.60;;
75246;SDS011;63844;50.042;19.224;2022-12-11T15:11:46;28.60;;;9.80;;
75246;SDS011;63844;50.042;19.224;2022-12-11T15:14:15;23.50;;;8.90;;
75246;SDS011;63844;50.042;19.224;2022-12-11T15:16:45;27.30;;;9.30;;
75246;SDS011;63844;50.042;19.224;2022-12-11T15:19:20;23.30;;;9.90;;
75246;SDS011;63844;50.042;19.224;2022-12-11T15:21:49;20.70;;;9.30;;
75246;SDS011;63844;50.042;19.224;2022-12-11T15:24:21;18.80;;;7.20;;
75246;SDS011;63844;50.042;19.224;2022-12-11T15:26:51;14.30;;;6.50;;
75246;SDS011;63844;50.042;19.224;2022-12-11T15:29:30;20.50;;;9.30;;
75246;SDS011;63844;50.042;19.224;2022-12-11T15:34:34;17.30;;;6.70;;
75246;SDS011;63844;50.042;19.224;2022-12-11T15:37:26;18.90;;;7.10;;
75246;SDS011;63844;50.042;19.224;2022-12-11T15:39:58;23.80;;;9.80;;
75246;SDS011;63844;50.042;19.224;2022-12-11T15:42:36;17.90;;;7.00;;
75246;SDS011;63844;50.042;19.224;2022-12-11T15:45:07;21.90;;;7.70;;
75246;SDS011;63844;50.042;19.224;2022-12-11T15:47:41;22.80;;;8.80;;
75246;SDS011;63844;50.042;19.224;2022-12-11T15:50:14;18.10;;;7.10;;
75246;SDS011;63844;50.042;19.224;2022-12-11T15:52:42;17.70;;;6.40;;
75246;SDS011;63844;50.042;19.224;2022-12-11T15:57:36;19.00;;;7.60;;
75246;SDS011;63844;50.042;19.224;2022-12-11T16:00:03;20.10;;;6.70;;
75246;SDS011;63844;50.042;19.224;2022-12-11T16:02:34;21.50;;;8.20;;
75246;SDS011;63844;50.042;19.224;2022-12-11T16:05:00;20.50;;;7.60;;
75246;SDS011;63844;50.042;19.224;2022-12-11T16:07:26;22.40;;;8.20;;
75246;SDS011;63844;50.042;19.224;2022-12-11T16:09:53;30.10;;;10.00;;